createdAt,value
2019-03-18T00:00:04.502Z,0.00
2019-03-18T00:01:04.499Z,0.00
2019-03-18T00:02:04.497Z,0.00
2019-03-18T00:03:04.470Z,0.00
2019-03-18T00:04:04.458Z,0.00
2019-03-18T00:05:04.453Z,0.00
2019-03-18T00:06:04.439Z,0.00
2019-03-18T00:07:04.437Z,0.00
2019-03-18T00:08:04.423Z,0.00
2019-03-18T00:09:04.410Z,0.00
2019-03-18T00:10:04.399Z,0.00
2019-03-18T00:11:04.393Z,0.00
2019-03-18T00:12:04.504Z,0.00
2019-03-18T00:13:04.369Z,0.00
2019-03-18T00:14:04.349Z,0.00
2019-03-18T00:15:04.351Z,0.00
2019-03-18T00:16:04.328Z,0.00
2019-03-18T00:17:04.324Z,0.00
2019-03-18T00:18:04.354Z,0.00
2019-03-18T00:19:04.299Z,0.00
2019-03-18T00:20:04.294Z,0.00
2019-03-18T00:21:04.283Z,0.00
2019-03-18T00:22:04.270Z,0.00
2019-03-18T00:23:04.305Z,0.00
2019-03-18T00:24:04.245Z,0.00
2019-03-18T00:25:04.236Z,0.00
2019-03-18T00:26:04.229Z,0.00
2019-03-18T00:27:04.289Z,0.00
2019-03-18T00:28:04.266Z,0.00
2019-03-18T00:29:04.194Z,0.00
2019-03-18T00:30:04.186Z,0.00
2019-03-18T00:31:04.170Z,0.00
2019-03-18T00:32:04.173Z,0.00
2019-03-18T00:33:04.144Z,0.00
2019-03-18T00:34:04.144Z,0.00
2019-03-18T00:35:04.167Z,0.00
2019-03-18T00:36:04.122Z,0.00
2019-03-18T00:37:04.106Z,0.00
2019-03-18T00:38:04.096Z,0.00
2019-03-18T00:39:04.097Z,0.00
2019-03-18T00:40:04.068Z,0.00
2019-03-18T00:41:04.062Z,0.00
2019-03-18T00:42:04.049Z,0.00
2019-03-18T00:43:04.102Z,0.00
2019-03-18T00:44:04.031Z,0.00
2019-03-18T00:45:14.229Z,0.00
2019-03-18T00:46:05.013Z,0.00
2019-03-18T00:47:03.996Z,0.00
2019-03-18T00:48:03.985Z,0.00
2019-03-18T00:49:04.018Z,0.00
2019-03-18T00:50:03.968Z,0.00
2019-03-18T00:51:03.954Z,0.00
2019-03-18T00:52:03.941Z,0.00
2019-03-18T00:53:03.928Z,0.00
2019-03-18T00:54:03.966Z,0.00
2019-03-18T00:55:03.906Z,0.00
2019-03-18T00:56:03.901Z,0.00
2019-03-18T00:57:03.887Z,0.00
2019-03-18T00:58:03.876Z,0.00
2019-03-18T00:59:03.946Z,0.00
2019-03-18T01:00:03.860Z,0.00
2019-03-18T01:01:03.850Z,0.00
2019-03-18T01:02:03.833Z,0.00
2019-03-18T01:03:03.824Z,0.00
2019-03-18T01:04:03.812Z,0.00
2019-03-18T01:05:03.806Z,0.00
2019-03-18T01:06:03.786Z,0.00
2019-03-18T01:07:03.779Z,0.00
2019-03-18T01:08:03.765Z,0.00
2019-03-18T01:09:03.761Z,0.00
2019-03-18T01:10:03.796Z,0.00
2019-03-18T01:11:03.736Z,0.00
2019-03-18T01:12:03.721Z,0.00
2019-03-18T01:13:03.714Z,0.00
2019-03-18T01:14:03.703Z,0.00
2019-03-18T01:15:03.689Z,0.00
2019-03-18T01:16:03.717Z,0.00
2019-03-18T01:17:03.668Z,0.00
2019-03-18T01:18:03.658Z,0.00
2019-03-18T01:19:03.650Z,0.00
2019-03-18T01:20:03.638Z,0.00
2019-03-18T01:21:03.630Z,0.00
2019-03-18T01:22:03.686Z,0.00
2019-03-18T01:23:03.611Z,0.00
2019-03-18T01:24:03.603Z,0.00
2019-03-18T01:25:03.581Z,0.00
2019-03-18T01:26:03.575Z,0.00
2019-03-18T01:27:03.564Z,0.00
2019-03-18T01:28:03.594Z,0.00
2019-03-18T01:29:03.539Z,0.00
2019-03-18T01:30:03.532Z,0.00
2019-03-18T01:31:03.517Z,0.00
2019-03-18T01:32:03.511Z,0.00
2019-03-18T01:33:03.510Z,0.00
2019-03-18T01:34:03.483Z,0.00
2019-03-18T01:35:03.477Z,0.00
2019-03-18T01:36:03.469Z,0.00
2019-03-18T01:37:03.452Z,0.00
2019-03-18T01:38:03.475Z,0.00
2019-03-18T01:39:03.434Z,0.00
2019-03-18T01:40:03.432Z,0.00
2019-03-18T01:41:03.414Z,0.00
2019-03-18T01:42:03.399Z,0.00
2019-03-18T01:43:03.394Z,0.00
2019-03-18T01:44:03.419Z,0.00
2019-03-18T01:45:03.374Z,0.00
2019-03-18T01:46:03.356Z,0.00
2019-03-18T01:47:03.404Z,0.00
2019-03-18T01:48:03.377Z,0.00
2019-03-18T01:49:03.321Z,0.00
2019-03-18T01:50:03.316Z,0.00
2019-03-18T01:51:03.308Z,0.00
2019-03-18T01:52:03.295Z,0.00
2019-03-18T01:53:03.369Z,0.00
2019-03-18T01:54:03.271Z,0.00
2019-03-18T01:55:03.258Z,0.00
2019-03-18T01:56:03.274Z,0.00
2019-03-18T01:57:03.235Z,0.00
2019-03-18T01:58:03.224Z,0.00
2019-03-18T01:59:03.228Z,0.00
2019-03-18T02:00:03.245Z,0.00
2019-03-18T02:01:03.202Z,0.00
2019-03-18T02:02:03.184Z,0.00
2019-03-18T02:03:03.174Z,0.00
2019-03-18T02:04:03.221Z,0.00
2019-03-18T02:05:03.190Z,0.00
2019-03-18T02:06:03.145Z,0.00
2019-03-18T02:07:03.125Z,0.00
2019-03-18T02:08:03.118Z,0.00
2019-03-18T02:09:03.108Z,0.00
2019-03-18T02:10:03.136Z,0.00
2019-03-18T02:11:03.127Z,0.00
2019-03-18T02:12:03.068Z,0.00
2019-03-18T02:13:03.064Z,0.00
2019-03-18T02:14:03.046Z,0.00
2019-03-18T02:15:03.042Z,0.00
2019-03-18T02:16:03.036Z,0.00
2019-03-18T02:17:03.021Z,0.00
2019-03-18T02:18:03.002Z,0.00
2019-03-18T02:19:02.993Z,0.00
2019-03-18T02:20:02.988Z,0.00
2019-03-18T02:21:03.054Z,0.00
2019-03-18T02:22:02.960Z,0.00
2019-03-18T02:23:02.954Z,0.00
2019-03-18T02:24:02.939Z,0.00
2019-03-18T02:25:02.932Z,0.00
2019-03-18T02:26:02.926Z,0.00
2019-03-18T02:27:02.919Z,0.00
2019-03-18T02:28:02.898Z,0.00
2019-03-18T02:29:02.893Z,0.00
2019-03-18T02:30:02.880Z,0.00
2019-03-18T02:31:02.897Z,0.00
2019-03-18T02:32:02.909Z,0.00
2019-03-18T02:33:02.852Z,0.00
2019-03-18T02:34:02.955Z,0.00
2019-03-18T02:35:02.823Z,0.00
2019-03-18T02:36:02.806Z,0.00
2019-03-18T02:37:02.841Z,0.00
2019-03-18T02:38:02.808Z,0.00
2019-03-18T02:39:02.788Z,0.00
2019-03-18T02:40:02.772Z,0.00
2019-03-18T02:41:02.756Z,0.00
2019-03-18T02:42:02.783Z,0.00
2019-03-18T02:43:02.738Z,0.00
2019-03-18T02:44:02.893Z,0.00
2019-03-18T02:45:02.755Z,0.00
2019-03-18T02:46:10.155Z,0.00
2019-03-18T02:47:03.686Z,0.00
2019-03-18T02:48:02.711Z,0.00
2019-03-18T02:49:02.671Z,0.00
2019-03-18T02:50:02.673Z,0.00
2019-03-18T02:51:02.643Z,0.00
2019-03-18T02:52:02.640Z,0.00
2019-03-18T02:53:02.640Z,0.00
2019-03-18T02:54:02.665Z,0.00
2019-03-18T02:55:02.607Z,0.00
2019-03-18T02:56:02.604Z,0.00
2019-03-18T02:57:02.577Z,0.00
2019-03-18T02:58:02.568Z,0.00
2019-03-18T02:59:02.562Z,0.00
2019-03-18T03:00:02.558Z,0.00
2019-03-18T03:01:02.547Z,0.00
2019-03-18T03:02:02.523Z,0.00
2019-03-18T03:03:02.557Z,0.00
2019-03-18T03:04:02.511Z,0.00
2019-03-18T03:05:02.502Z,0.00
2019-03-18T03:06:02.481Z,0.00
2019-03-18T03:07:02.501Z,0.00
2019-03-18T03:08:02.502Z,0.00
2019-03-18T03:09:02.452Z,0.00
2019-03-18T03:10:02.443Z,0.00
2019-03-18T03:11:02.424Z,0.00
2019-03-18T03:12:02.414Z,0.00
2019-03-18T03:13:02.427Z,0.00
2019-03-18T03:14:02.389Z,0.00
2019-03-18T03:15:02.383Z,0.00
2019-03-18T03:16:02.378Z,0.00
2019-03-18T03:17:02.358Z,0.00
2019-03-18T03:18:02.393Z,0.00
2019-03-18T03:19:02.335Z,0.00
2019-03-18T03:20:02.326Z,0.00
2019-03-18T03:21:02.319Z,0.00
2019-03-18T03:22:02.349Z,0.00
2019-03-18T03:23:02.347Z,0.00
2019-03-18T03:24:02.301Z,0.00
2019-03-18T03:25:02.317Z,0.00
2019-03-18T03:26:02.271Z,0.00
2019-03-18T03:27:02.252Z,0.00
2019-03-18T03:28:02.328Z,0.00
2019-03-18T03:29:02.233Z,0.00
2019-03-18T03:30:02.395Z,0.00
2019-03-18T03:31:02.399Z,0.00
2019-03-18T03:32:02.218Z,0.00
2019-03-18T03:33:02.280Z,0.00
2019-03-18T03:34:02.227Z,0.00
2019-03-18T03:35:02.231Z,0.00
2019-03-18T03:36:02.153Z,0.00
2019-03-18T03:37:02.143Z,0.00
2019-03-18T03:38:02.134Z,0.00
2019-03-18T03:39:02.127Z,0.00
2019-03-18T03:40:02.161Z,0.00
2019-03-18T03:41:02.102Z,0.00
2019-03-18T03:42:02.098Z,0.00
2019-03-18T03:43:02.081Z,0.00
2019-03-18T03:44:02.067Z,0.00
2019-03-18T03:45:02.061Z,0.00
2019-03-18T03:46:02.058Z,0.00
2019-03-18T03:47:02.036Z,0.00
2019-03-18T03:48:02.026Z,0.00
2019-03-18T03:49:02.008Z,0.00
2019-03-18T03:50:01.999Z,0.00
2019-03-18T03:51:02.034Z,0.00
2019-03-18T03:52:01.981Z,0.00
2019-03-18T03:53:01.970Z,0.00
2019-03-18T03:54:01.958Z,0.00
2019-03-18T03:55:09.906Z,0.00
2019-03-18T03:56:02.000Z,0.00
2019-03-18T03:57:01.928Z,0.00
2019-03-18T03:58:01.926Z,0.00
2019-03-18T03:59:01.965Z,0.00
2019-03-18T04:00:02.092Z,0.00
2019-03-18T04:01:01.976Z,0.00
2019-03-18T04:02:01.874Z,0.00
2019-03-18T04:03:01.866Z,0.00
2019-03-18T04:04:01.850Z,0.00
2019-03-18T04:05:01.844Z,0.00
2019-03-18T04:06:01.907Z,0.00
2019-03-18T04:07:01.817Z,0.00
2019-03-18T04:08:01.808Z,0.00
2019-03-18T04:09:01.789Z,0.00
2019-03-18T04:10:01.785Z,0.00
2019-03-18T04:11:01.771Z,0.00
2019-03-18T04:12:01.879Z,0.00
2019-03-18T04:13:01.755Z,0.00
2019-03-18T04:14:01.740Z,0.00
2019-03-18T04:15:01.729Z,0.00
2019-03-18T04:16:01.725Z,0.00
2019-03-18T04:17:02.649Z,0.00
2019-03-18T04:18:01.693Z,0.00
2019-03-18T04:19:01.680Z,0.00
2019-03-18T04:20:01.670Z,0.00
2019-03-18T04:21:01.670Z,0.00
2019-03-18T04:22:01.731Z,0.00
2019-03-18T04:23:01.645Z,0.00
2019-03-18T04:24:01.627Z,0.00
2019-03-18T04:25:01.629Z,0.00
2019-03-18T04:26:01.617Z,0.00
2019-03-18T04:27:01.599Z,0.00
2019-03-18T04:28:01.630Z,0.00
2019-03-18T04:29:01.614Z,0.00
2019-03-18T04:30:01.566Z,0.00
2019-03-18T04:31:01.567Z,0.00
2019-03-18T04:32:01.554Z,0.00
2019-03-18T04:33:01.538Z,0.00
2019-03-18T04:34:01.522Z,0.00
2019-03-18T04:35:01.517Z,0.00
2019-03-18T04:36:01.496Z,0.00
2019-03-18T04:37:01.491Z,0.00
2019-03-18T04:38:01.505Z,0.00
2019-03-18T04:39:01.465Z,0.00
2019-03-18T04:40:01.462Z,0.00
2019-03-18T04:41:01.446Z,0.00
2019-03-18T04:42:01.431Z,0.00
2019-03-18T04:43:01.486Z,0.00
2019-03-18T04:44:01.409Z,0.00
2019-03-18T04:45:01.402Z,0.00
2019-03-18T04:46:01.454Z,0.00
2019-03-18T04:47:13.478Z,0.00
2019-03-18T04:48:02.396Z,0.00
2019-03-18T04:49:01.360Z,0.00
2019-03-18T04:50:01.341Z,0.00
2019-03-18T04:51:01.330Z,0.00
2019-03-18T04:52:01.333Z,0.00
2019-03-18T04:53:01.321Z,0.00
2019-03-18T04:54:01.327Z,0.00
2019-03-18T04:55:01.302Z,0.00
2019-03-18T04:56:01.282Z,0.00
2019-03-18T04:57:01.277Z,0.00
2019-03-18T04:58:01.263Z,0.00
2019-03-18T04:59:01.328Z,0.00
2019-03-18T05:00:01.240Z,0.00
2019-03-18T05:01:01.222Z,0.00
2019-03-18T05:02:01.210Z,0.00
2019-03-18T05:03:01.205Z,0.00
2019-03-18T05:04:01.198Z,0.00
2019-03-18T05:05:01.235Z,0.00
2019-03-18T05:06:01.174Z,0.00
2019-03-18T05:07:01.165Z,0.00
2019-03-18T05:08:01.171Z,0.00
2019-03-18T05:09:01.141Z,0.00
2019-03-18T05:10:01.193Z,0.00
2019-03-18T05:11:01.121Z,0.00
2019-03-18T05:12:01.102Z,0.00
2019-03-18T05:13:01.092Z,0.00
2019-03-18T05:14:01.082Z,0.00
2019-03-18T05:15:01.068Z,0.00
2019-03-18T05:16:01.086Z,0.00
2019-03-18T05:17:01.097Z,0.00
2019-03-18T05:18:01.042Z,0.00
2019-03-18T05:19:01.030Z,0.00
2019-03-18T05:20:01.014Z,0.00
2019-03-18T05:21:01.016Z,0.00
2019-03-18T05:22:01.063Z,0.00
2019-03-18T05:23:01.029Z,0.00
2019-03-18T05:24:01.045Z,0.00
2019-03-18T05:25:00.973Z,0.00
2019-03-18T05:26:01.918Z,0.00
2019-03-18T05:27:00.941Z,0.00
2019-03-18T05:28:00.928Z,0.00
2019-03-18T05:29:00.947Z,0.00
2019-03-18T05:30:01.447Z,0.00
2019-03-18T05:31:00.936Z,0.00
2019-03-18T05:32:00.885Z,0.00
2019-03-18T05:33:00.877Z,5.62
2019-03-18T05:34:00.868Z,5.62
2019-03-18T05:35:00.860Z,5.62
2019-03-18T05:36:00.847Z,5.62
2019-03-18T05:37:00.967Z,5.62
2019-03-18T05:38:00.827Z,5.62
2019-03-18T05:39:00.817Z,5.62
2019-03-18T05:40:00.797Z,11.25
2019-03-18T05:41:00.792Z,11.25
2019-03-18T05:42:00.822Z,11.25
2019-03-18T05:43:00.773Z,11.25
2019-03-18T05:44:00.760Z,5.62
2019-03-18T05:45:00.748Z,5.62
2019-03-18T05:46:00.742Z,5.62
2019-03-18T05:47:00.767Z,11.25
2019-03-18T05:48:00.721Z,5.62
2019-03-18T05:49:00.730Z,11.25
2019-03-18T05:50:00.695Z,11.25
2019-03-18T05:51:00.681Z,16.88
2019-03-18T05:52:00.717Z,16.88
2019-03-18T05:53:00.658Z,22.50
2019-03-18T05:54:00.729Z,16.88
2019-03-18T05:55:00.657Z,11.25
2019-03-18T05:56:00.622Z,16.88
2019-03-18T05:57:00.620Z,22.50
2019-03-18T05:58:00.647Z,22.50
2019-03-18T05:59:00.592Z,22.50
2019-03-18T06:00:00.607Z,22.50
2019-03-18T06:01:00.683Z,28.12
2019-03-18T06:02:00.564Z,33.75
2019-03-18T06:03:00.556Z,33.75
2019-03-18T06:04:00.537Z,33.75
2019-03-18T06:05:00.529Z,33.75
2019-03-18T06:06:00.514Z,33.75
2019-03-18T06:07:00.549Z,39.38
2019-03-18T06:08:00.519Z,33.75
2019-03-18T06:09:00.505Z,33.75
2019-03-18T06:10:00.496Z,28.12
2019-03-18T06:11:00.505Z,28.12
2019-03-18T06:12:01.433Z,39.38
2019-03-18T06:13:00.444Z,33.75
2019-03-18T06:14:00.427Z,56.25
2019-03-18T06:15:00.502Z,67.50
2019-03-18T06:16:00.452Z,67.50
2019-03-18T06:17:00.396Z,56.25
2019-03-18T06:18:00.388Z,73.12
2019-03-18T06:19:00.479Z,50.62
2019-03-18T06:20:00.458Z,61.88
2019-03-18T06:21:00.352Z,56.25
2019-03-18T06:22:00.345Z,50.62
2019-03-18T06:23:00.333Z,73.12
2019-03-18T06:24:00.319Z,56.25
2019-03-18T06:25:00.415Z,56.25
2019-03-18T06:26:00.405Z,67.50
2019-03-18T06:27:00.287Z,50.62
2019-03-18T06:28:00.279Z,56.25
2019-03-18T06:29:00.269Z,78.75
2019-03-18T06:30:00.419Z,84.38
2019-03-18T06:31:00.252Z,78.75
2019-03-18T06:32:00.252Z,78.75
2019-03-18T06:33:00.293Z,61.88
2019-03-18T06:34:00.216Z,56.25
2019-03-18T06:35:00.345Z,45.00
2019-03-18T06:36:00.191Z,39.38
2019-03-18T06:37:00.222Z,33.75
2019-03-18T06:38:00.180Z,33.75
2019-03-18T06:39:00.172Z,45.00
2019-03-18T06:40:00.356Z,39.38
2019-03-18T06:41:00.250Z,33.75
2019-03-18T06:42:00.134Z,45.00
2019-03-18T06:43:00.123Z,39.38
2019-03-18T06:44:00.102Z,39.38
2019-03-18T06:45:00.358Z,39.38
2019-03-18T06:46:00.079Z,45.00
2019-03-18T06:47:00.117Z,39.38
2019-03-18T06:48:05.326Z,33.75
2019-03-18T06:49:01.045Z,33.75
2019-03-18T06:50:00.036Z,33.75
2019-03-18T06:51:00.027Z,33.75
2019-03-18T06:52:00.018Z,33.75
2019-03-18T06:53:00.052Z,33.75
2019-03-18T06:53:59.993Z,39.38
2019-03-18T06:55:00.006Z,45.00
2019-03-18T06:56:00.489Z,45.00
2019-03-18T06:57:00.047Z,56.25
2019-03-18T06:57:59.958Z,73.12
2019-03-18T06:58:59.970Z,67.50
2019-03-18T06:59:59.929Z,67.50
2019-03-18T07:00:59.945Z,56.25
2019-03-18T07:01:59.913Z,61.88
2019-03-18T07:02:59.912Z,84.38
2019-03-18T07:03:59.887Z,84.38
2019-03-18T07:04:59.969Z,95.62
2019-03-18T07:05:59.872Z,101.25
2019-03-18T07:06:59.853Z,101.25
2019-03-18T07:07:59.848Z,118.12
2019-03-18T07:08:59.837Z,123.75
2019-03-18T07:09:59.857Z,118.12
2019-03-18T07:10:59.878Z,123.75
2019-03-18T07:11:59.811Z,112.50
2019-03-18T07:12:59.788Z,118.12
2019-03-18T07:13:59.777Z,112.50
2019-03-18T07:14:59.808Z,101.25
2019-03-18T07:16:00.218Z,101.25
2019-03-18T07:16:59.789Z,95.62
2019-03-18T07:17:59.741Z,84.38
2019-03-18T07:18:59.730Z,78.75
2019-03-18T07:19:59.716Z,84.38
2019-03-18T07:20:59.703Z,73.12
2019-03-18T07:21:59.738Z,90.00
2019-03-18T07:23:00.444Z,101.25
2019-03-18T07:23:59.667Z,95.62
2019-03-18T07:24:59.690Z,95.62
2019-03-18T07:25:59.654Z,112.50
2019-03-18T07:26:59.692Z,140.62
2019-03-18T07:27:59.625Z,163.12
2019-03-18T07:28:59.621Z,180.00
2019-03-18T07:29:59.628Z,157.50
2019-03-18T07:30:59.597Z,163.12
2019-03-18T07:31:59.589Z,151.88
2019-03-18T07:32:59.617Z,168.75
2019-03-18T07:33:59.969Z,180.00
2019-03-18T07:34:59.551Z,146.25
2019-03-18T07:35:59.538Z,151.88
2019-03-18T07:36:59.530Z,174.38
2019-03-18T07:37:59.516Z,196.88
2019-03-18T07:38:59.523Z,202.50
2019-03-18T07:39:59.504Z,168.75
2019-03-18T07:40:59.497Z,168.75
2019-03-18T07:42:00.444Z,146.25
2019-03-18T07:42:59.544Z,129.38
2019-03-18T07:43:59.450Z,135.00
2019-03-18T07:44:59.555Z,135.00
2019-03-18T07:45:59.431Z,140.62
2019-03-18T07:46:59.447Z,174.38
2019-03-18T07:47:59.421Z,163.12
2019-03-18T07:48:59.396Z,180.00
2019-03-18T07:49:59.383Z,180.00
2019-03-18T07:50:59.380Z,163.12
2019-03-18T07:51:59.362Z,191.25
2019-03-18T07:52:59.409Z,202.50
2019-03-18T07:53:59.344Z,191.25
2019-03-18T07:54:59.333Z,174.38
2019-03-18T07:55:59.322Z,230.62
2019-03-18T07:56:59.317Z,230.62
2019-03-18T07:57:59.293Z,174.38
2019-03-18T07:58:59.328Z,101.25
2019-03-18T07:59:59.279Z,135.00
2019-03-18T08:00:59.435Z,146.25
2019-03-18T08:01:59.256Z,151.88
2019-03-18T08:02:59.247Z,140.62
2019-03-18T08:03:59.231Z,196.88
2019-03-18T08:04:59.237Z,185.62
2019-03-18T08:05:59.209Z,163.12
2019-03-18T08:06:59.203Z,123.75
2019-03-18T08:07:59.191Z,157.50
2019-03-18T08:08:59.198Z,191.25
2019-03-18T08:09:59.163Z,191.25
2019-03-18T08:10:59.190Z,180.00
2019-03-18T08:11:59.144Z,180.00
2019-03-18T08:12:59.137Z,185.62
2019-03-18T08:13:59.126Z,208.12
2019-03-18T08:14:59.120Z,236.25
2019-03-18T08:15:59.101Z,196.88
2019-03-18T08:16:59.090Z,208.12
2019-03-18T08:17:59.104Z,196.88
2019-03-18T08:18:59.077Z,196.88
2019-03-18T08:19:59.130Z,196.88
2019-03-18T08:20:59.052Z,264.38
2019-03-18T08:21:59.033Z,163.12
2019-03-18T08:22:59.021Z,225.00
2019-03-18T08:23:59.010Z,146.25
2019-03-18T08:24:59.005Z,140.62
2019-03-18T08:25:59.033Z,191.25
2019-03-18T08:26:58.978Z,191.25
2019-03-18T08:27:58.979Z,174.38
2019-03-18T08:28:58.963Z,151.88
2019-03-18T08:29:58.950Z,163.12
2019-03-18T08:30:58.979Z,202.50
2019-03-18T08:31:58.942Z,264.38
2019-03-18T08:32:59.917Z,286.88
2019-03-18T08:33:58.974Z,219.38
2019-03-18T08:34:58.895Z,135.00
2019-03-18T08:35:59.051Z,157.50
2019-03-18T08:36:58.876Z,196.88
2019-03-18T08:37:58.874Z,444.38
2019-03-18T08:38:58.846Z,230.62
2019-03-18T08:39:58.839Z,253.12
2019-03-18T08:40:58.844Z,202.50
2019-03-18T08:41:58.861Z,140.62
2019-03-18T08:42:58.812Z,135.00
2019-03-18T08:43:58.800Z,151.88
2019-03-18T08:44:58.792Z,129.38
2019-03-18T08:45:58.769Z,135.00
2019-03-18T08:46:58.933Z,185.62
2019-03-18T08:47:58.754Z,281.25
2019-03-18T08:48:58.739Z,292.50
2019-03-18T08:49:58.726Z,151.88
2019-03-18T08:50:58.716Z,185.62
2019-03-18T08:51:58.709Z,168.75
2019-03-18T08:52:58.740Z,174.38
2019-03-18T08:53:58.692Z,253.12
2019-03-18T08:54:58.680Z,247.50
2019-03-18T08:55:58.679Z,123.75
2019-03-18T08:56:58.693Z,157.50
2019-03-18T08:57:58.646Z,174.38
2019-03-18T08:58:58.635Z,101.25
2019-03-18T08:59:58.627Z,84.38
2019-03-18T09:00:58.620Z,101.25
2019-03-18T09:01:58.603Z,95.62
2019-03-18T09:02:58.670Z,78.75
2019-03-18T09:03:58.629Z,106.88
2019-03-18T09:04:58.618Z,90.00
2019-03-18T09:05:58.553Z,106.88
2019-03-18T09:06:58.542Z,106.88
2019-03-18T09:07:58.535Z,101.25
2019-03-18T09:08:58.536Z,95.62
2019-03-18T09:09:58.511Z,73.12
2019-03-18T09:10:58.504Z,67.50
2019-03-18T09:11:58.497Z,73.12
2019-03-18T09:12:58.476Z,90.00
2019-03-18T09:13:58.513Z,78.75
2019-03-18T09:14:58.549Z,90.00
2019-03-18T09:15:58.451Z,73.12
2019-03-18T09:16:58.442Z,90.00
2019-03-18T09:17:58.422Z,84.38
2019-03-18T09:19:07.960Z,135.00
2019-03-18T09:19:59.445Z,157.50
2019-03-18T09:20:58.401Z,168.75
2019-03-18T09:21:58.619Z,275.62
2019-03-18T09:23:01.252Z,264.38
2019-03-18T09:23:58.470Z,213.75
2019-03-18T09:24:58.357Z,258.75
2019-03-18T09:25:58.339Z,219.38
2019-03-18T09:27:02.699Z,185.62
2019-03-18T09:27:58.323Z,258.75
2019-03-18T09:28:58.307Z,191.25
2019-03-18T09:29:58.339Z,292.50
2019-03-18T09:30:58.287Z,455.62
2019-03-18T09:31:58.276Z,202.50
2019-03-18T09:32:58.263Z,371.25
2019-03-18T09:33:58.248Z,444.38
2019-03-18T09:34:58.284Z,376.88
2019-03-18T09:35:58.232Z,309.38
2019-03-18T09:36:58.227Z,517.50
2019-03-18T09:37:58.209Z,444.38
2019-03-18T09:38:58.192Z,393.75
2019-03-18T09:39:58.182Z,528.75
2019-03-18T09:40:58.217Z,433.12
2019-03-18T09:41:58.168Z,360.00
2019-03-18T09:42:58.151Z,196.88
2019-03-18T09:43:58.139Z,135.00
2019-03-18T09:44:58.973Z,106.88
2019-03-18T09:45:58.135Z,118.12
2019-03-18T09:46:58.107Z,112.50
2019-03-18T09:47:58.095Z,129.38
2019-03-18T09:48:58.089Z,118.12
2019-03-18T09:49:58.077Z,123.75
2019-03-18T09:50:58.092Z,90.00
2019-03-18T09:51:58.114Z,73.12
2019-03-18T09:52:58.040Z,73.12
2019-03-18T09:53:58.052Z,90.00
2019-03-18T09:54:58.018Z,84.38
2019-03-18T09:56:05.993Z,84.38
2019-03-18T09:56:57.996Z,78.75
2019-03-18T09:57:58.067Z,101.25
2019-03-18T09:58:57.976Z,118.12
2019-03-18T09:59:57.969Z,118.12
2019-03-18T10:00:57.958Z,106.88
2019-03-18T10:01:57.944Z,112.50
2019-03-18T10:02:57.994Z,101.25
2019-03-18T10:03:57.918Z,106.88
2019-03-18T10:04:57.919Z,90.00
2019-03-18T10:05:57.901Z,135.00
2019-03-18T10:06:57.891Z,208.12
2019-03-18T10:07:57.957Z,151.88
2019-03-18T10:08:57.871Z,129.38
2019-03-18T10:09:57.855Z,123.75
2019-03-18T10:10:57.841Z,101.25
2019-03-18T10:11:57.835Z,106.88
2019-03-18T10:12:57.821Z,163.12
2019-03-18T10:13:57.856Z,191.25
2019-03-18T10:14:57.798Z,174.38
2019-03-18T10:15:57.792Z,118.12
2019-03-18T10:17:09.084Z,95.62
2019-03-18T10:17:58.766Z,101.25
2019-03-18T10:18:57.774Z,95.62
2019-03-18T10:19:57.745Z,106.88
2019-03-18T10:20:57.738Z,90.00
2019-03-18T10:21:57.727Z,67.50
2019-03-18T10:22:57.758Z,95.62
2019-03-18T10:23:57.703Z,118.12
2019-03-18T10:24:57.707Z,84.38
2019-03-18T10:25:57.683Z,129.38
2019-03-18T10:26:57.670Z,219.38
2019-03-18T10:27:57.665Z,270.00
2019-03-18T10:28:57.654Z,253.12
2019-03-18T10:29:57.656Z,309.38
2019-03-18T10:30:57.623Z,343.12
2019-03-18T10:31:57.611Z,405.00
2019-03-18T10:32:57.609Z,365.62
2019-03-18T10:33:57.593Z,241.88
2019-03-18T10:34:57.586Z,196.88
2019-03-18T10:35:57.616Z,258.75
2019-03-18T10:36:57.556Z,371.25
2019-03-18T10:37:57.545Z,506.25
2019-03-18T10:38:57.535Z,309.38
2019-03-18T10:39:57.530Z,388.12
2019-03-18T10:40:59.669Z,382.50
2019-03-18T10:41:57.502Z,382.50
2019-03-18T10:42:57.495Z,382.50
2019-03-18T10:43:57.482Z,360.00
2019-03-18T10:44:57.472Z,292.50
2019-03-18T10:45:57.505Z,326.25
2019-03-18T10:46:57.459Z,365.62
2019-03-18T10:47:57.442Z,354.38
2019-03-18T10:48:57.428Z,315.00
2019-03-18T10:49:57.424Z,303.75
2019-03-18T10:50:57.487Z,303.75
2019-03-18T10:51:57.439Z,303.75
2019-03-18T10:52:57.390Z,281.25
2019-03-18T10:53:57.372Z,253.12
2019-03-18T10:54:57.361Z,174.38
2019-03-18T10:56:07.233Z,118.12
2019-03-18T10:56:58.385Z,106.88
2019-03-18T10:57:57.328Z,129.38
2019-03-18T10:58:57.326Z,146.25
2019-03-18T10:59:57.311Z,157.50
2019-03-18T11:00:57.302Z,129.38
2019-03-18T11:01:57.399Z,118.12
2019-03-18T11:02:57.275Z,95.62
2019-03-18T11:03:57.270Z,106.88
2019-03-18T11:04:57.252Z,163.12
2019-03-18T11:05:57.247Z,135.00
2019-03-18T11:06:57.241Z,95.62
2019-03-18T11:07:57.265Z,129.38
2019-03-18T11:08:57.216Z,140.62
2019-03-18T11:09:57.202Z,90.00
2019-03-18T11:10:57.189Z,78.75
2019-03-18T11:11:57.176Z,78.75
2019-03-18T11:12:57.341Z,84.38
2019-03-18T11:13:57.158Z,67.50
2019-03-18T11:14:57.144Z,61.88
2019-03-18T11:15:57.132Z,61.88
2019-03-18T11:16:57.127Z,61.88
2019-03-18T11:17:57.183Z,67.50
2019-03-18T11:18:57.123Z,78.75
2019-03-18T11:19:58.662Z,84.38
2019-03-18T11:20:57.140Z,112.50
2019-03-18T11:21:57.067Z,106.88
2019-03-18T11:22:57.060Z,95.62
2019-03-18T11:23:57.051Z,146.25
2019-03-18T11:24:57.033Z,523.12
2019-03-18T11:25:57.020Z,225.00
2019-03-18T11:26:57.058Z,151.88
2019-03-18T11:27:57.005Z,180.00
2019-03-18T11:28:57.039Z,472.50
2019-03-18T11:29:56.982Z,438.75
2019-03-18T11:30:56.968Z,140.62
2019-03-18T11:31:56.960Z,168.75
2019-03-18T11:32:56.953Z,281.25
2019-03-18T11:33:57.009Z,421.88
2019-03-18T11:34:56.934Z,421.88
2019-03-18T11:35:56.911Z,421.88
2019-03-18T11:36:56.906Z,427.50
2019-03-18T11:37:56.893Z,433.12
2019-03-18T11:38:56.885Z,450.00
2019-03-18T11:39:56.915Z,466.88
2019-03-18T11:40:56.856Z,365.62
2019-03-18T11:41:56.873Z,337.50
2019-03-18T11:42:56.839Z,247.50
2019-03-18T11:43:56.826Z,348.75
2019-03-18T11:44:56.860Z,382.50
2019-03-18T11:45:56.806Z,326.25
2019-03-18T11:46:56.796Z,180.00
2019-03-18T11:47:56.785Z,140.62
2019-03-18T11:48:56.771Z,174.38
2019-03-18T11:49:56.821Z,286.88
2019-03-18T11:50:56.750Z,292.50
2019-03-18T11:51:56.740Z,213.75
2019-03-18T11:52:56.742Z,157.50
2019-03-18T11:53:56.715Z,106.88
2019-03-18T11:54:56.703Z,78.75
2019-03-18T11:55:56.739Z,56.25
2019-03-18T11:56:56.697Z,50.62
2019-03-18T11:57:56.675Z,50.62
2019-03-18T11:58:56.663Z,50.62
2019-03-18T11:59:56.653Z,61.88
2019-03-18T12:00:56.642Z,90.00
2019-03-18T12:01:56.674Z,185.62
2019-03-18T12:02:56.620Z,348.75
2019-03-18T12:03:56.615Z,264.38
2019-03-18T12:04:57.790Z,163.12
2019-03-18T12:05:56.582Z,95.62
2019-03-18T12:06:56.607Z,95.62
2019-03-18T12:07:56.561Z,174.38
2019-03-18T12:08:56.554Z,303.75
2019-03-18T12:09:56.538Z,590.62
2019-03-18T12:10:56.560Z,511.88
2019-03-18T12:11:56.518Z,427.50
2019-03-18T12:12:56.535Z,405.00
2019-03-18T12:13:56.500Z,393.75
2019-03-18T12:14:56.491Z,388.12
2019-03-18T12:15:56.477Z,376.88
2019-03-18T12:16:56.509Z,371.25
2019-03-18T12:17:56.497Z,365.62
2019-03-18T12:18:56.440Z,365.62
2019-03-18T12:19:56.429Z,360.00
2019-03-18T12:20:56.418Z,360.00
2019-03-18T12:21:56.554Z,388.12
2019-03-18T12:22:56.398Z,371.25
2019-03-18T12:23:56.390Z,151.88
2019-03-18T12:24:56.379Z,157.50
2019-03-18T12:25:56.367Z,241.88
2019-03-18T12:26:56.352Z,326.25
2019-03-18T12:27:56.373Z,270.00
2019-03-18T12:28:56.333Z,213.75
2019-03-18T12:29:56.328Z,258.75
2019-03-18T12:30:56.310Z,405.00
2019-03-18T12:31:56.298Z,382.50
2019-03-18T12:32:56.354Z,365.62
2019-03-18T12:33:57.512Z,320.62
2019-03-18T12:34:56.272Z,208.12
2019-03-18T12:35:56.252Z,135.00
2019-03-18T12:36:56.247Z,123.75
2019-03-18T12:37:56.232Z,140.62
2019-03-18T12:38:56.237Z,168.75
2019-03-18T12:39:56.230Z,213.75
2019-03-18T12:40:56.203Z,208.12
2019-03-18T12:41:56.189Z,241.88
2019-03-18T12:42:56.184Z,286.88
2019-03-18T12:43:56.211Z,264.38
2019-03-18T12:44:56.157Z,191.25
2019-03-18T12:45:56.151Z,174.38
2019-03-18T12:46:56.141Z,253.12
2019-03-18T12:47:56.123Z,253.12
2019-03-18T12:48:56.157Z,241.88
2019-03-18T12:49:56.106Z,174.38
2019-03-18T12:50:56.809Z,118.12
2019-03-18T12:51:56.123Z,95.62
2019-03-18T12:52:56.078Z,67.50
2019-03-18T12:53:56.056Z,45.00